Weather at Chicago Midway International Airport

Public forecast

Using degrees Fahrenheit for public forecast. Weather courtesy of forecast.io.

Current aviation weather report (METAR) for Chicago Midway International Airport

Retrieved 2021/01/26 07:53 UTC (42 minutes ago):

KMDW 260753Z 07014KT 3/4SM R31C/P6000FT -SN BR OVC007 M01/M02 A2972 RMK AO2 SLP074 DRSN P0001 T10061022

Aviation forecast (TAF) for Chicago Midway International Airport

Retrieved 2021/01/26 06:22 UTC (2 hours ago):

TAF KMDW 260520Z 2606/2712 06020G30KT 1 1/2SM -SN BR SCT009 OVC015 TEMPO 2606/2610 3/4SM -SN BR OVC007 FM261000 05017G27KT 3/4SM -SN BR OVC007 FM261300 04015G25KT 1 1/2SM -SN BR OVC009 FM262100 02013G23KT 2SM -SN BR OVC012 FM270300 01013G18KT 5SM -SN OVC015 FM270700 36012KT 5SM -SHSN BKN018